createdAt,value
2019-03-19T00:00:00.375Z,99031.69
2019-03-19T00:01:09.884Z,99024.55
2019-03-19T00:02:17.892Z,99023.19
2019-03-19T00:03:26.098Z,99026.05
2019-03-19T00:04:34.277Z,99026.89
2019-03-19T00:05:42.568Z,99030.92
2019-03-19T00:06:50.570Z,99032.70
2019-03-19T00:07:58.694Z,99037.17
2019-03-19T00:09:08.177Z,99032.00
2019-03-19T00:10:16.235Z,99041.00
2019-03-19T00:11:24.002Z,99041.84
2019-03-19T00:12:32.123Z,99036.12
2019-03-19T00:13:39.940Z,99041.23
2019-03-19T00:14:47.945Z,99040.21
2019-03-19T00:15:56.153Z,99047.51
2019-03-19T00:17:04.358Z,99043.01
2019-03-19T00:18:12.471Z,99040.52
2019-03-19T00:19:22.457Z,99047.64
2019-03-19T00:20:30.014Z,99043.99
2019-03-19T00:21:37.869Z,99042.55
2019-03-19T00:22:46.537Z,99046.19
2019-03-19T00:23:54.647Z,99054.22
2019-03-19T00:25:02.555Z,99051.92
2019-03-19T00:26:10.614Z,99057.40
2019-03-19T00:27:18.649Z,99050.73
2019-03-19T00:28:26.552Z,99055.23
2019-03-19T00:29:34.391Z,99059.86
2019-03-19T00:30:42.525Z,99056.16
2019-03-19T00:31:50.661Z,99050.27
2019-03-19T00:32:58.595Z,99048.19
2019-03-19T00:34:06.407Z,99054.38
2019-03-19T00:35:14.645Z,99057.78
2019-03-19T00:36:22.549Z,99057.78
2019-03-19T00:37:30.392Z,99054.22
2019-03-19T00:38:38.628Z,99052.22
2019-03-19T00:39:46.720Z,99059.78
2019-03-19T00:40:54.566Z,99052.69
2019-03-19T00:42:02.496Z,99061.73
2019-03-19T00:43:10.508Z,99055.32
2019-03-19T00:44:18.338Z,99056.00
2019-03-19T00:45:26.687Z,99056.16
2019-03-19T00:46:35.017Z,99060.71
2019-03-19T00:47:43.293Z,99060.03
2019-03-19T00:48:51.295Z,99062.58
2019-03-19T00:49:59.261Z,99057.31
2019-03-19T00:51:07.033Z,99061.73
2019-03-19T00:52:15.062Z,99060.97
2019-03-19T00:53:22.881Z,99064.83
2019-03-19T00:54:30.949Z,99059.27
2019-03-19T00:55:40.924Z,99063.42
2019-03-19T00:56:48.685Z,99066.22
2019-03-19T00:57:56.588Z,99067.08
2019-03-19T00:59:04.412Z,99060.50
2019-03-19T01:00:22.040Z,99054.69
2019-03-19T01:01:30.084Z,99057.31
2019-03-19T01:02:37.751Z,99061.98
2019-03-19T01:03:45.536Z,99055.32
2019-03-19T01:04:53.571Z,99056.38
2019-03-19T01:06:01.674Z,99061.27
2019-03-19T01:07:09.709Z,99058.38
2019-03-19T01:08:17.633Z,99061.09
2019-03-19T01:09:25.623Z,99059.77
2019-03-19T01:10:33.648Z,99065.67
2019-03-19T01:11:41.412Z,99062.63
2019-03-19T01:12:49.916Z,99064.65
2019-03-19T01:13:57.932Z,99068.42
2019-03-19T01:15:10.004Z,99062.31
2019-03-19T01:16:17.896Z,99064.38
2019-03-19T01:17:25.708Z,99064.30
2019-03-19T01:18:33.462Z,99067.78
2019-03-19T01:19:41.470Z,99065.80
2019-03-19T01:20:49.502Z,99061.00
2019-03-19T01:21:57.562Z,99069.09
2019-03-19T01:23:05.762Z,99071.34
2019-03-19T01:24:13.605Z,99075.67
2019-03-19T01:25:21.409Z,99074.27
2019-03-19T01:26:29.659Z,99075.20
2019-03-19T01:27:37.661Z,99077.91
2019-03-19T01:28:45.421Z,99073.20
2019-03-19T01:29:53.810Z,99078.69
2019-03-19T01:31:01.686Z,99083.26
2019-03-19T01:32:09.708Z,99082.31
2019-03-19T01:33:17.928Z,99077.52
2019-03-19T01:34:25.812Z,99085.53
2019-03-19T01:35:34.109Z,99090.58
2019-03-19T01:36:42.100Z,99090.66
2019-03-19T01:37:49.988Z,99090.58
2019-03-19T01:38:58.173Z,99094.91
2019-03-19T01:40:10.094Z,99088.27
2019-03-19T01:41:17.873Z,99089.58
2019-03-19T01:42:25.972Z,99089.81
2019-03-19T01:43:33.846Z,99090.02
2019-03-19T01:44:42.085Z,99091.72
2019-03-19T01:45:49.944Z,99087.94
2019-03-19T01:46:58.277Z,99086.28
2019-03-19T01:48:06.671Z,99089.45
2019-03-19T01:49:14.660Z,99088.42
2019-03-19T01:50:22.752Z,99094.22
2019-03-19T01:51:30.645Z,99087.11
2019-03-19T01:52:38.720Z,99082.70
2019-03-19T01:53:46.528Z,99092.32
2019-03-19T01:54:54.610Z,99093.22
2019-03-19T01:56:05.407Z,99086.64
2019-03-19T01:57:12.113Z,99093.17
2019-03-19T01:58:20.019Z,99100.15
2019-03-19T01:59:27.895Z,99096.75
2019-03-19T02:00:35.823Z,99098.55
2019-03-19T02:01:43.785Z,99103.66
2019-03-19T02:02:51.937Z,99103.66
2019-03-19T02:03:59.900Z,99104.50
2019-03-19T02:05:08.342Z,99097.83
2019-03-19T02:06:16.187Z,99105.59
2019-03-19T02:07:23.898Z,99103.66
2019-03-19T02:08:31.909Z,99106.54
2019-03-19T02:09:39.912Z,99108.63
2019-03-19T02:10:47.979Z,99110.66
2019-03-19T02:11:55.859Z,99108.42
2019-03-19T02:13:04.011Z,99110.89
2019-03-19T02:14:11.759Z,99117.00
2019-03-19T02:15:20.222Z,99112.28
2019-03-19T02:16:28.036Z,99117.00
2019-03-19T02:17:36.026Z,99117.84
2019-03-19T02:18:44.452Z,99118.70
2019-03-19T02:19:52.498Z,99116.53
2019-03-19T02:21:00.313Z,99117.67
2019-03-19T02:22:08.330Z,99122.16
2019-03-19T02:23:16.202Z,99120.08
2019-03-19T02:24:24.204Z,99127.03
2019-03-19T02:25:32.191Z,99126.95
2019-03-19T02:26:40.908Z,99123.48
2019-03-19T02:27:48.536Z,99121.77
2019-03-19T02:28:56.653Z,99121.23
2019-03-19T02:30:07.021Z,99119.91
2019-03-19T02:31:15.120Z,99120.84
2019-03-19T02:32:23.379Z,99119.06
2019-03-19T02:33:31.483Z,99119.41
2019-03-19T02:34:39.585Z,99122.93
2019-03-19T02:35:48.310Z,99119.06
2019-03-19T02:36:56.378Z,99119.99
2019-03-19T02:38:04.485Z,99124.71
2019-03-19T02:39:12.214Z,99119.45
2019-03-19T02:40:20.454Z,99122.93
2019-03-19T02:41:28.558Z,99123.09
2019-03-19T02:42:36.658Z,99126.95
2019-03-19T02:43:44.621Z,99123.48
2019-03-19T02:44:52.459Z,99129.12
2019-03-19T02:46:00.326Z,99133.87
2019-03-19T02:47:08.232Z,99134.25
2019-03-19T02:48:16.107Z,99129.92
2019-03-19T02:49:23.833Z,99132.09
2019-03-19T02:50:31.583Z,99132.14
2019-03-19T02:51:39.485Z,99140.44
2019-03-19T02:52:47.446Z,99140.10
2019-03-19T02:53:55.476Z,99137.55
2019-03-19T02:55:03.580Z,99139.02
2019-03-19T02:56:11.558Z,99145.98
2019-03-19T02:57:19.265Z,99145.05
2019-03-19T02:58:27.059Z,99144.80
2019-03-19T02:59:34.880Z,99150.52
2019-03-19T03:00:42.641Z,99147.31
2019-03-19T03:01:50.506Z,99150.33
2019-03-19T03:02:58.322Z,99159.89
2019-03-19T03:04:07.706Z,99154.68
2019-03-19T03:05:18.525Z,99154.60
2019-03-19T03:06:26.485Z,99155.22
2019-03-19T03:07:34.178Z,99154.41
2019-03-19T03:08:42.071Z,99155.03
2019-03-19T03:09:50.461Z,99152.71
2019-03-19T03:10:58.872Z,99158.59
2019-03-19T03:12:06.982Z,99158.59
2019-03-19T03:13:14.853Z,99162.25
2019-03-19T03:14:22.774Z,99158.20
2019-03-19T03:15:30.435Z,99163.84
2019-03-19T03:16:38.311Z,99162.61
2019-03-19T03:17:46.304Z,99161.48
2019-03-19T03:18:54.322Z,99162.60
2019-03-19T03:20:02.530Z,99166.01
2019-03-19T03:21:10.296Z,99168.17
2019-03-19T03:22:18.268Z,99167.32
2019-03-19T03:23:26.293Z,99165.77
2019-03-19T03:24:34.245Z,99166.31
2019-03-19T03:25:41.870Z,99166.35
2019-03-19T03:26:49.766Z,99167.28
2019-03-19T03:27:57.409Z,99169.98
2019-03-19T03:29:05.674Z,99158.34
2019-03-19T03:30:17.773Z,99169.66
2019-03-19T03:31:26.016Z,99164.75
2019-03-19T03:32:33.806Z,99161.52
2019-03-19T03:33:41.563Z,99167.23
2019-03-19T03:34:49.536Z,99164.67
2019-03-19T03:35:57.504Z,99165.47
2019-03-19T03:37:05.722Z,99167.70
2019-03-19T03:38:13.570Z,99164.02
2019-03-19T03:39:21.354Z,99169.81
2019-03-19T03:40:29.328Z,99166.59
2019-03-19T03:41:37.425Z,99175.20
2019-03-19T03:42:45.876Z,99180.11
2019-03-19T03:43:53.689Z,99178.09
2019-03-19T03:45:01.578Z,99174.55
2019-03-19T03:46:09.765Z,99178.87
2019-03-19T03:47:17.605Z,99179.79
2019-03-19T03:48:25.754Z,99176.56
2019-03-19T03:49:33.511Z,99180.71
2019-03-19T03:50:41.437Z,99179.14
2019-03-19T03:51:49.670Z,99181.42
2019-03-19T03:52:57.664Z,99179.61
2019-03-19T03:54:06.108Z,99184.25
2019-03-19T03:55:17.077Z,99190.70
2019-03-19T03:56:25.016Z,99186.63
2019-03-19T03:57:32.987Z,99189.56
2019-03-19T03:58:41.083Z,99195.16
2019-03-19T03:59:49.290Z,99204.99
2019-03-19T04:00:57.277Z,99197.39
2019-03-19T04:02:05.781Z,99199.23
2019-03-19T04:03:13.879Z,99200.09
2019-03-19T04:04:21.734Z,99199.75
2019-03-19T04:05:29.435Z,99201.20
2019-03-19T04:06:37.325Z,99202.63
2019-03-19T04:07:45.219Z,99197.30
2019-03-19T04:08:53.137Z,99204.11
2019-03-19T04:10:00.942Z,99208.40
2019-03-19T04:11:09.014Z,99207.16
2019-03-19T04:12:16.612Z,99205.38
2019-03-19T04:13:24.521Z,99208.94
2019-03-19T04:14:32.254Z,99202.75
2019-03-19T04:15:40.135Z,99204.07
2019-03-19T04:16:48.017Z,99213.27
2019-03-19T04:17:55.901Z,99214.13
2019-03-19T04:19:03.917Z,99210.76
2019-03-19T04:20:17.250Z,99218.52
2019-03-19T04:21:25.190Z,99214.83
2019-03-19T04:22:32.971Z,99213.94
2019-03-19T04:23:41.059Z,99220.09
2019-03-19T04:24:49.093Z,99218.66
2019-03-19T04:25:56.876Z,99218.20
2019-03-19T04:27:15.340Z,99223.52
2019-03-19T04:28:14.521Z,99223.33
2019-03-19T04:29:23.310Z,99226.54
2019-03-19T04:30:31.109Z,99222.98
2019-03-19T04:31:39.089Z,99228.63
2019-03-19T04:32:46.840Z,99231.14
2019-03-19T04:33:54.742Z,99231.52
2019-03-19T04:35:02.963Z,99232.64
2019-03-19T04:36:10.760Z,99231.61
2019-03-19T04:37:18.754Z,99236.64
2019-03-19T04:38:26.833Z,99233.23
2019-03-19T04:39:34.592Z,99231.39
2019-03-19T04:40:42.533Z,99233.70
2019-03-19T04:41:50.291Z,99235.80
2019-03-19T04:42:58.205Z,99240.08
2019-03-19T04:44:06.419Z,99241.65
2019-03-19T04:45:15.946Z,99243.43
2019-03-19T04:46:23.873Z,99245.13
2019-03-19T04:47:31.664Z,99253.55
2019-03-19T04:48:39.407Z,99255.50
2019-03-19T04:49:47.410Z,99259.78
2019-03-19T04:50:55.508Z,99256.34
2019-03-19T04:52:03.383Z,99265.54
2019-03-19T04:53:11.250Z,99262.98
2019-03-19T04:54:18.935Z,99265.41
2019-03-19T04:55:26.859Z,99264.23
2019-03-19T04:56:34.591Z,99266.72
2019-03-19T04:57:42.393Z,99265.66
2019-03-19T04:58:50.332Z,99267.64
2019-03-19T04:59:59.037Z,99272.04
2019-03-19T05:01:07.663Z,99272.15
2019-03-19T05:02:15.667Z,99279.70
2019-03-19T05:03:23.399Z,99281.09
2019-03-19T05:04:31.125Z,99278.78
2019-03-19T05:05:39.029Z,99281.91
2019-03-19T05:06:47.001Z,99279.48
2019-03-19T05:07:54.933Z,99281.51
2019-03-19T05:09:02.890Z,99283.56
2019-03-19T05:10:19.211Z,99289.59
2019-03-19T05:11:27.194Z,99286.22
2019-03-19T05:12:35.288Z,99288.91
2019-03-19T05:13:43.132Z,99289.98
2019-03-19T05:14:51.107Z,99289.38
2019-03-19T05:15:59.745Z,99297.27
2019-03-19T05:17:08.123Z,99298.33
2019-03-19T05:18:16.126Z,99296.70
2019-03-19T05:19:23.959Z,99299.69
2019-03-19T05:20:31.844Z,99301.50
2019-03-19T05:21:39.944Z,99302.95
2019-03-19T05:22:47.747Z,99305.80
2019-03-19T05:23:55.765Z,99301.25
2019-03-19T05:25:03.827Z,99302.78
2019-03-19T05:26:11.875Z,99303.91
2019-03-19T05:27:19.943Z,99301.88
2019-03-19T05:28:28.138Z,99306.53
2019-03-19T05:29:36.230Z,99305.89
2019-03-19T05:30:44.003Z,99306.17
2019-03-19T05:31:51.645Z,99306.95
2019-03-19T05:32:59.674Z,99310.17
2019-03-19T05:34:07.698Z,99313.97
2019-03-19T05:35:16.104Z,99318.19
2019-03-19T05:36:24.114Z,99318.90
2019-03-19T05:37:32.061Z,99319.64
2019-03-19T05:38:40.084Z,99327.30
2019-03-19T05:39:47.873Z,99328.50
2019-03-19T05:40:55.887Z,99325.61
2019-03-19T05:42:03.698Z,99329.48
2019-03-19T05:43:11.672Z,99334.00
2019-03-19T05:44:19.752Z,99338.94
2019-03-19T05:45:27.848Z,99339.13
2019-03-19T05:46:35.746Z,99338.41
2019-03-19T05:47:44.246Z,99350.70
2019-03-19T05:48:52.552Z,99354.31
2019-03-19T05:50:00.645Z,99352.67
2019-03-19T05:51:08.514Z,99355.96
2019-03-19T05:52:16.535Z,99361.69
2019-03-19T05:53:24.287Z,99360.13
2019-03-19T05:54:32.725Z,99361.88
2019-03-19T05:55:40.553Z,99363.00
2019-03-19T05:56:48.407Z,99357.09
2019-03-19T05:57:56.271Z,99360.89
2019-03-19T05:59:04.230Z,99354.59
2019-03-19T06:00:22.527Z,99351.31
2019-03-19T06:01:30.349Z,99348.84
2019-03-19T06:02:38.292Z,99349.82
2019-03-19T06:03:46.395Z,99357.83
2019-03-19T06:04:54.223Z,99353.16
2019-03-19T06:06:02.130Z,99359.07
2019-03-19T06:07:10.512Z,99358.41
2019-03-19T06:08:18.704Z,99359.42
2019-03-19T06:09:26.723Z,99356.67
2019-03-19T06:10:34.689Z,99360.42
2019-03-19T06:11:42.823Z,99364.06
2019-03-19T06:12:51.381Z,99356.51
2019-03-19T06:13:59.439Z,99353.64
2019-03-19T06:15:15.295Z,99357.85
2019-03-19T06:16:23.505Z,99359.86
2019-03-19T06:17:31.547Z,99357.19
2019-03-19T06:18:39.595Z,99357.03
2019-03-19T06:19:47.456Z,99362.60
2019-03-19T06:20:55.412Z,99363.80
2019-03-19T06:22:03.435Z,99367.20
2019-03-19T06:23:11.420Z,99359.30
2019-03-19T06:24:19.382Z,99367.46
2019-03-19T06:25:27.748Z,99367.46
2019-03-19T06:26:35.482Z,99370.78
2019-03-19T06:27:43.834Z,99370.24
2019-03-19T06:28:51.909Z,99378.79
2019-03-19T06:29:59.983Z,99380.83
2019-03-19T06:31:08.063Z,99384.11
2019-03-19T06:32:16.535Z,99383.14
2019-03-19T06:33:24.455Z,99385.22
2019-03-19T06:34:32.750Z,99391.19
2019-03-19T06:35:40.962Z,99387.70
2019-03-19T06:36:49.127Z,99395.03
2019-03-19T06:37:56.937Z,99392.14
2019-03-19T06:39:07.656Z,99393.08
2019-03-19T06:40:18.178Z,99395.58
2019-03-19T06:41:26.633Z,99395.68
2019-03-19T06:42:34.566Z,99401.72
2019-03-19T06:43:42.562Z,99403.30
2019-03-19T06:44:50.803Z,99401.77
2019-03-19T06:45:58.813Z,99399.70
2019-03-19T06:47:06.909Z,99392.78
2019-03-19T06:48:14.890Z,99394.19
2019-03-19T06:49:23.310Z,99394.36
2019-03-19T06:50:31.704Z,99398.02
2019-03-19T06:51:39.657Z,99391.59
2019-03-19T06:52:47.911Z,99392.61
2019-03-19T06:53:55.977Z,99396.23
2019-03-19T06:55:04.915Z,99397.13
2019-03-19T06:56:14.812Z,99399.51
2019-03-19T06:57:23.106Z,99398.05
2019-03-19T06:58:31.146Z,99405.02
2019-03-19T06:59:39.339Z,99404.80
2019-03-19T07:00:47.437Z,99403.62
2019-03-19T07:01:55.346Z,99403.55
2019-03-19T07:03:03.647Z,99407.28
2019-03-19T07:04:11.835Z,99410.98
2019-03-19T07:05:20.848Z,99413.71
2019-03-19T07:06:28.902Z,99411.15
2019-03-19T07:07:36.948Z,99409.83
2019-03-19T07:08:44.867Z,99409.89
2019-03-19T07:09:53.033Z,99409.20
2019-03-19T07:11:00.971Z,99407.03
2019-03-19T07:12:09.372Z,99412.05
2019-03-19T07:13:17.533Z,99407.97
2019-03-19T07:14:25.729Z,99413.17
2019-03-19T07:15:34.030Z,99416.42
2019-03-19T07:16:42.298Z,99408.59
2019-03-19T07:17:50.238Z,99412.38
2019-03-19T07:18:58.065Z,99409.59
2019-03-19T07:20:18.404Z,99414.64
2019-03-19T07:21:26.393Z,99417.75
2019-03-19T07:22:34.596Z,99413.87
2019-03-19T07:23:42.523Z,99421.09
2019-03-19T07:24:50.443Z,99427.28
2019-03-19T07:25:58.699Z,99417.67
2019-03-19T07:27:06.783Z,99423.96
2019-03-19T07:28:22.075Z,99416.05
2019-03-19T07:29:24.456Z,99420.14
2019-03-19T07:30:32.810Z,99422.39
2019-03-19T07:31:40.736Z,99423.33
2019-03-19T07:32:48.700Z,99422.26
2019-03-19T07:33:56.602Z,99430.09
2019-03-19T07:35:05.101Z,99421.31
2019-03-19T07:36:13.234Z,99416.80
2019-03-19T07:37:21.075Z,99424.42
2019-03-19T07:38:29.075Z,99424.72
2019-03-19T07:39:36.953Z,99427.23
2019-03-19T07:40:44.947Z,99430.09
2019-03-19T07:41:53.979Z,99424.09
2019-03-19T07:43:02.177Z,99426.44
2019-03-19T07:44:10.378Z,99426.81
2019-03-19T07:45:23.443Z,99428.52
2019-03-19T07:46:31.482Z,99432.01
2019-03-19T07:47:39.792Z,99429.70
2019-03-19T07:48:47.627Z,99432.41
2019-03-19T07:49:55.616Z,99430.07
2019-03-19T07:51:03.816Z,99427.89
2019-03-19T07:52:11.860Z,99431.92
2019-03-19T07:53:19.836Z,99431.00
2019-03-19T07:54:27.960Z,99428.11
2019-03-19T07:55:36.000Z,99433.75
2019-03-19T07:56:43.991Z,99435.75
2019-03-19T07:57:52.085Z,99432.89
2019-03-19T07:59:00.417Z,99435.44
2019-03-19T08:00:16.795Z,99426.82
2019-03-19T08:01:24.876Z,99435.41
2019-03-19T08:02:32.967Z,99430.82
2019-03-19T08:03:41.105Z,99432.00
2019-03-19T08:04:49.319Z,99432.80
2019-03-19T08:05:57.244Z,99435.28
2019-03-19T08:07:05.554Z,99437.81
2019-03-19T08:08:13.482Z,99437.75
2019-03-19T08:09:21.711Z,99448.18
2019-03-19T08:10:29.703Z,99444.63
2019-03-19T08:11:37.542Z,99439.64
2019-03-19T08:12:45.735Z,99443.42
2019-03-19T08:13:53.609Z,99448.15
2019-03-19T08:15:01.491Z,99453.53
2019-03-19T08:16:09.703Z,99451.52
2019-03-19T08:17:17.591Z,99460.87
2019-03-19T08:18:25.680Z,99459.08
2019-03-19T08:19:33.699Z,99459.33
2019-03-19T08:20:41.671Z,99452.83
2019-03-19T08:21:49.762Z,99453.34
2019-03-19T08:22:57.658Z,99456.99
2019-03-19T08:24:05.608Z,99458.44
2019-03-19T08:25:14.801Z,99455.83
2019-03-19T08:26:22.620Z,99457.12
2019-03-19T08:27:30.726Z,99462.33
2019-03-19T08:28:38.744Z,99473.79
2019-03-19T08:29:46.850Z,99462.47
2019-03-19T08:30:54.726Z,99459.84
2019-03-19T08:32:02.729Z,99456.84
2019-03-19T08:33:10.651Z,99455.75
2019-03-19T08:34:18.557Z,99463.32
2019-03-19T08:35:26.626Z,99463.44
2019-03-19T08:36:34.615Z,99460.48
2019-03-19T08:37:42.813Z,99464.84
2019-03-19T08:38:50.682Z,99467.39
2019-03-19T08:39:58.811Z,99462.45
2019-03-19T08:41:07.019Z,99463.27
2019-03-19T08:42:15.102Z,99464.20
2019-03-19T08:43:23.147Z,99471.94
2019-03-19T08:44:31.111Z,99467.05
2019-03-19T08:45:39.102Z,99467.65
2019-03-19T08:46:46.957Z,99468.05
2019-03-19T08:47:55.032Z,99468.59
2019-03-19T08:49:03.073Z,99463.30
2019-03-19T08:50:24.531Z,99458.45
2019-03-19T08:51:32.518Z,99462.86
2019-03-19T08:52:40.805Z,99456.61
2019-03-19T08:53:48.870Z,99461.11
2019-03-19T08:54:57.177Z,99454.22
2019-03-19T08:56:05.060Z,99463.89
2019-03-19T08:57:13.075Z,99455.59
2019-03-19T08:58:21.050Z,99456.83
2019-03-19T08:59:29.254Z,99457.89
2019-03-19T09:00:37.223Z,99455.72
2019-03-19T09:01:47.220Z,99461.66
2019-03-19T09:02:54.680Z,99459.58
2019-03-19T09:04:02.511Z,99465.93
2019-03-19T09:05:11.283Z,99468.28
2019-03-19T09:06:19.228Z,99470.76
2019-03-19T09:07:27.223Z,99477.09
2019-03-19T09:08:34.912Z,99473.00
2019-03-19T09:09:42.826Z,99474.66
2019-03-19T09:10:50.839Z,99477.39
2019-03-19T09:11:58.924Z,99484.03
2019-03-19T09:13:06.754Z,99476.69
2019-03-19T09:14:14.576Z,99480.78
2019-03-19T09:15:29.950Z,99478.16
2019-03-19T09:16:37.628Z,99479.39
2019-03-19T09:17:45.868Z,99482.08
2019-03-19T09:18:53.849Z,99487.64
2019-03-19T09:20:01.846Z,99492.04
2019-03-19T09:21:10.077Z,99492.25
2019-03-19T09:22:18.036Z,99486.95
2019-03-19T09:23:26.359Z,99494.59
2019-03-19T09:24:34.253Z,99496.86
2019-03-19T09:25:42.337Z,99501.19
2019-03-19T09:26:50.181Z,99499.58
2019-03-19T09:27:58.017Z,99502.77
2019-03-19T09:29:16.071Z,99503.59
2019-03-19T09:30:24.677Z,99503.02
2019-03-19T09:31:33.016Z,99509.26
2019-03-19T09:32:40.762Z,99513.51
2019-03-19T09:33:48.698Z,99509.66
2019-03-19T09:34:56.731Z,99509.19
2019-03-19T09:36:04.584Z,99506.16
2019-03-19T09:37:12.541Z,99498.40
2019-03-19T09:38:20.511Z,99502.77
2019-03-19T09:39:28.306Z,99504.21
2019-03-19T09:40:36.656Z,99499.65
2019-03-19T09:41:44.787Z,99498.89
2019-03-19T09:42:52.912Z,99500.63
2019-03-19T09:44:00.993Z,99499.88
2019-03-19T09:45:11.485Z,99492.88
2019-03-19T09:46:19.499Z,99496.70
2019-03-19T09:47:27.886Z,99488.47
2019-03-19T09:48:35.818Z,99488.97
2019-03-19T09:49:43.834Z,99494.72
2019-03-19T09:50:51.824Z,99494.09
2019-03-19T09:52:00.038Z,99499.52
2019-03-19T09:53:08.215Z,99495.73
2019-03-19T09:54:16.221Z,99508.23
2019-03-19T09:55:24.699Z,99500.99
2019-03-19T09:56:32.995Z,99493.58
2019-03-19T09:57:41.122Z,99495.12
2019-03-19T09:58:49.044Z,99493.36
2019-03-19T09:59:56.754Z,99495.08
2019-03-19T10:01:04.703Z,99499.36
2019-03-19T10:02:12.530Z,99491.88
2019-03-19T10:03:20.491Z,99492.63
2019-03-19T10:04:28.310Z,99491.51
2019-03-19T10:05:36.234Z,99495.20
2019-03-19T10:06:44.149Z,99492.46
2019-03-19T10:07:52.325Z,99503.55
2019-03-19T10:09:00.136Z,99500.03
2019-03-19T10:10:17.169Z,99498.14
2019-03-19T10:11:24.911Z,99494.56
2019-03-19T10:12:33.074Z,99497.30
2019-03-19T10:13:41.241Z,99505.00
2019-03-19T10:14:49.046Z,99492.24
2019-03-19T10:15:58.488Z,99488.08
2019-03-19T10:17:06.687Z,99497.34
2019-03-19T10:18:14.536Z,99500.19
2019-03-19T10:19:22.522Z,99493.13
2019-03-19T10:20:30.668Z,99489.03
2019-03-19T10:21:39.129Z,99490.13
2019-03-19T10:22:47.492Z,99497.48
2019-03-19T10:23:55.779Z,99484.32
2019-03-19T10:25:05.004Z,99489.94
2019-03-19T10:26:13.620Z,99486.80
2019-03-19T10:27:21.745Z,99483.06
2019-03-19T10:28:29.862Z,99483.17
2019-03-19T10:29:38.682Z,99482.05
2019-03-19T10:30:47.029Z,99484.53
2019-03-19T10:31:55.017Z,99484.97
2019-03-19T10:33:03.118Z,99477.48
2019-03-19T10:34:11.163Z,99483.69
2019-03-19T10:35:19.520Z,99490.97
2019-03-19T10:36:27.521Z,99485.52
2019-03-19T10:37:35.535Z,99476.70
2019-03-19T10:38:43.409Z,99477.08
2019-03-19T10:39:51.466Z,99482.84
2019-03-19T10:40:59.386Z,99492.19
2019-03-19T10:42:07.640Z,99483.16
2019-03-19T10:43:15.686Z,99489.05
2019-03-19T10:44:23.503Z,99490.84
2019-03-19T10:45:32.130Z,99491.23
2019-03-19T10:46:40.111Z,99485.64
2019-03-19T10:47:49.495Z,99483.78
2019-03-19T10:48:57.509Z,99487.92
2019-03-19T10:50:15.125Z,99491.90
2019-03-19T10:51:23.159Z,99493.70
2019-03-19T10:52:31.425Z,99488.01
2019-03-19T10:53:39.150Z,99507.16
2019-03-19T10:54:47.549Z,99503.05
2019-03-19T10:55:55.393Z,99501.69
2019-03-19T10:57:03.336Z,99501.51
2019-03-19T10:58:11.572Z,99503.14
2019-03-19T10:59:19.660Z,99502.77
2019-03-19T11:00:28.541Z,99491.73
2019-03-19T11:01:36.908Z,99503.31
2019-03-19T11:02:45.092Z,99502.95
2019-03-19T11:03:52.984Z,99501.09
2019-03-19T11:05:00.755Z,99496.52
2019-03-19T11:06:09.072Z,99502.67
2019-03-19T11:07:17.188Z,99494.09
2019-03-19T11:08:25.204Z,99502.89
2019-03-19T11:09:33.182Z,99493.70
2019-03-19T11:10:41.157Z,99490.38
2019-03-19T11:11:49.149Z,99498.53
2019-03-19T11:12:57.308Z,99494.98
2019-03-19T11:14:05.171Z,99489.75
2019-03-19T11:15:28.103Z,99488.95
2019-03-19T11:16:36.893Z,99492.95
2019-03-19T11:17:45.004Z,99489.30
2019-03-19T11:18:52.801Z,99491.88
2019-03-19T11:20:00.794Z,99488.70
2019-03-19T11:21:09.040Z,99492.97
2019-03-19T11:22:17.802Z,99489.09
2019-03-19T11:23:25.803Z,99497.02
2019-03-19T11:24:33.757Z,99487.48
2019-03-19T11:25:41.513Z,99494.84
2019-03-19T11:26:50.084Z,99487.22
2019-03-19T11:27:58.266Z,99486.22
2019-03-19T11:29:06.259Z,99482.53
2019-03-19T11:30:23.600Z,99476.42
2019-03-19T11:31:31.785Z,99480.31
2019-03-19T11:32:39.764Z,99479.46
2019-03-19T11:33:47.875Z,99472.80
2019-03-19T11:34:55.692Z,99471.62
2019-03-19T11:36:03.602Z,99473.83
2019-03-19T11:37:11.336Z,99467.28
2019-03-19T11:38:19.177Z,99469.98
2019-03-19T11:39:27.132Z,99465.44
2019-03-19T11:40:35.037Z,99473.64
2019-03-19T11:41:42.983Z,99467.04
2019-03-19T11:42:51.925Z,99474.08
2019-03-19T11:43:59.691Z,99470.95
2019-03-19T11:45:11.345Z,99476.40
2019-03-19T11:46:19.360Z,99480.72
2019-03-19T11:47:27.752Z,99474.06
2019-03-19T11:48:35.580Z,99474.87
2019-03-19T11:49:43.444Z,99480.07
2019-03-19T11:50:51.050Z,99468.97
2019-03-19T11:51:59.172Z,99471.11
2019-03-19T11:53:07.324Z,99474.66
2019-03-19T11:54:15.256Z,99473.86
2019-03-19T11:55:23.194Z,99475.45
2019-03-19T11:56:31.249Z,99471.34
2019-03-19T11:57:39.319Z,99473.97
2019-03-19T11:58:47.222Z,99473.41
2019-03-19T11:59:55.043Z,99467.49
2019-03-19T12:01:04.355Z,99482.46
2019-03-19T12:02:12.439Z,99483.42
2019-03-19T12:03:20.565Z,99484.53
2019-03-19T12:04:28.541Z,99480.56
2019-03-19T12:05:36.610Z,99488.06
2019-03-19T12:06:44.837Z,99485.15
2019-03-19T12:07:52.730Z,99487.75
2019-03-19T12:09:00.590Z,99490.27
2019-03-19T12:10:09.251Z,99489.84
2019-03-19T12:11:17.128Z,99491.95
2019-03-19T12:12:25.068Z,99491.33
2019-03-19T12:13:33.236Z,99495.80
2019-03-19T12:14:41.204Z,99492.23
2019-03-19T12:15:49.406Z,99491.86
2019-03-19T12:16:57.659Z,99495.67
2019-03-19T12:18:06.371Z,99493.60
2019-03-19T12:19:14.379Z,99490.66
2019-03-19T12:20:22.256Z,99495.12
2019-03-19T12:21:30.214Z,99489.73
2019-03-19T12:22:38.099Z,99490.66
2019-03-19T12:23:46.086Z,99493.38
2019-03-19T12:24:54.286Z,99496.70
2019-03-19T12:26:02.055Z,99497.16
2019-03-19T12:27:10.059Z,99496.80
2019-03-19T12:28:17.979Z,99494.44
2019-03-19T12:29:26.394Z,99497.94
2019-03-19T12:30:34.863Z,99497.98
2019-03-19T12:31:42.651Z,99499.67
2019-03-19T12:32:50.749Z,99487.80
2019-03-19T12:33:58.757Z,99483.38
2019-03-19T12:35:10.108Z,99486.58
2019-03-19T12:36:18.019Z,99484.80
2019-03-19T12:37:25.976Z,99478.56
2019-03-19T12:38:34.539Z,99480.63
2019-03-19T12:39:42.628Z,99479.16
2019-03-19T12:40:51.131Z,99484.14
2019-03-19T12:41:59.387Z,99479.28
2019-03-19T12:43:07.604Z,99480.98
2019-03-19T12:44:15.608Z,99482.28
2019-03-19T12:45:24.862Z,99482.77
2019-03-19T12:46:32.890Z,99478.49
2019-03-19T12:47:40.953Z,99478.20
2019-03-19T12:48:48.807Z,99476.06
2019-03-19T12:49:56.995Z,99476.77
2019-03-19T12:51:04.729Z,99474.89
2019-03-19T12:52:12.918Z,99480.91
2019-03-19T12:53:20.973Z,99482.45
2019-03-19T12:54:29.181Z,99482.17
2019-03-19T12:55:37.026Z,99484.39
2019-03-19T12:56:45.000Z,99481.92
2019-03-19T12:57:53.099Z,99485.14
2019-03-19T12:59:01.198Z,99485.33
2019-03-19T13:00:21.338Z,99490.63
2019-03-19T13:01:29.425Z,99489.16
2019-03-19T13:02:37.568Z,99489.42
2019-03-19T13:03:45.673Z,99485.06
2019-03-19T13:04:53.762Z,99498.19
2019-03-19T13:06:01.858Z,99495.88
2019-03-19T13:07:09.980Z,99493.70
2019-03-19T13:08:20.225Z,99499.04
2019-03-19T13:09:27.429Z,99501.70
2019-03-19T13:10:35.684Z,99496.44
2019-03-19T13:11:43.693Z,99495.11
2019-03-19T13:12:51.666Z,99494.31
2019-03-19T13:13:59.665Z,99490.09
2019-03-19T13:15:11.407Z,99495.34
2019-03-19T13:16:19.339Z,99487.00
2019-03-19T13:17:27.244Z,99485.21
2019-03-19T13:18:36.346Z,99483.93
2019-03-19T13:19:44.096Z,99483.34
2019-03-19T13:20:53.625Z,99478.89
2019-03-19T13:22:01.662Z,99479.61